<?xml version="1.0" encoding="UTF-8" standalone="no" ?>
<gpx xmlns="http://www.topografix.com/GPX/1/1" xmlns:xsi="http://www.w3.org/2001/XMLSchema-instance" xsi:schemaLocation="http://www.topografix.com/GPX/1/1 http://www.topografix.com/GPX/1/1/gpx.xsd" version="1.1" creator="VisuGPX - https://www.visugpx.com">
  <metadata>
    <name>Course à pied dans l'après-midi</name>
  </metadata>
  <trk>
    <name><![CDATA[Course à pied dans l'après-midi_1]]></name>
    <trkseg>
      <trkpt lat="48.72851" lon="7.0456">
        <ele>252.9</ele>
        <time>2023-10-18T15:03:28Z</time>
      </trkpt>
      <trkpt lat="48.72853" lon="7.04527">
        <ele>252.8</ele>
        <time>2023-10-18T15:03:34Z</time>
      </trkpt>
      <trkpt lat="48.7285" lon="7.04508">
        <ele>252.8</ele>
        <time>2023-10-18T15:03:36Z</time>
      </trkpt>
      <trkpt lat="48.72844" lon="7.04492">
        <ele>252.7</ele>
        <time>2023-10-18T15:03:38Z</time>
      </trkpt>
      <trkpt lat="48.72836" lon="7.0448">
        <ele>252.6</ele>
        <time>2023-10-18T15:03:40Z</time>
      </trkpt>
      <trkpt lat="48.72828" lon="7.04471">
        <ele>252.6</ele>
        <time>2023-10-18T15:03:42Z</time>
      </trkpt>
      <trkpt lat="48.72818" lon="7.04466">
        <ele>252.7</ele>
        <time>2023-10-18T15:03:44Z</time>
      </trkpt>
      <trkpt lat="48.72809" lon="7.04468">
        <ele>252.7</ele>
        <time>2023-10-18T15:03:46Z</time>
      </trkpt>
      <trkpt lat="48.728" lon="7.04477">
        <ele>252.6</ele>
        <time>2023-10-18T15:03:48Z</time>
      </trkpt>
      <trkpt lat="48.72786" lon="7.04504">
        <ele>252.5</ele>
        <time>2023-10-18T15:03:52Z</time>
      </trkpt>
      <trkpt lat="48.72773" lon="7.04532">
        <ele>252.3</ele>
        <time>2023-10-18T15:03:56Z</time>
      </trkpt>
      <trkpt lat="48.72759" lon="7.0456">
        <ele>252.2</ele>
        <time>2023-10-18T15:04:00Z</time>
      </trkpt>
      <trkpt lat="48.72747" lon="7.04587">
        <ele>252.2</ele>
        <time>2023-10-18T15:04:04Z</time>
      </trkpt>
      <trkpt lat="48.72745" lon="7.04595">
        <ele>252.2</ele>
        <time>2023-10-18T15:04:05Z</time>
      </trkpt>
      <trkpt lat="48.72743" lon="7.04611">
        <ele>252.2</ele>
        <time>2023-10-18T15:04:07Z</time>
      </trkpt>
      <trkpt lat="48.72745" lon="7.04627">
        <ele>252.2</ele>
        <time>2023-10-18T15:04:09Z</time>
      </trkpt>
      <trkpt lat="48.7275" lon="7.0464">
        <ele>252.2</ele>
        <time>2023-10-18T15:04:11Z</time>
      </trkpt>
      <trkpt lat="48.72758" lon="7.0465">
        <ele>252.2</ele>
        <time>2023-10-18T15:04:13Z</time>
      </trkpt>
      <trkpt lat="48.72767" lon="7.04658">
        <ele>252.3</ele>
        <time>2023-10-18T15:04:15Z</time>
      </trkpt>
      <trkpt lat="48.72783" lon="7.04665">
        <ele>252.4</ele>
        <time>2023-10-18T15:04:18Z</time>
      </trkpt>
      <trkpt lat="48.72793" lon="7.04665">
        <ele>252.4</ele>
        <time>2023-10-18T15:04:20Z</time>
      </trkpt>
      <trkpt lat="48.72801" lon="7.0466">
        <ele>252.4</ele>
        <time>2023-10-18T15:04:22Z</time>
      </trkpt>
      <trkpt lat="48.72808" lon="7.04651">
        <ele>252.4</ele>
        <time>2023-10-18T15:04:24Z</time>
      </trkpt>
      <trkpt lat="48.72814" lon="7.0464">
        <ele>252.5</ele>
        <time>2023-10-18T15:04:26Z</time>
      </trkpt>
      <trkpt lat="48.72825" lon="7.04614">
        <ele>252.6</ele>
        <time>2023-10-18T15:04:30Z</time>
      </trkpt>
      <trkpt lat="48.72837" lon="7.04587">
        <ele>252.7</ele>
        <time>2023-10-18T15:04:34Z</time>
      </trkpt>
      <trkpt lat="48.72849" lon="7.04561">
        <ele>252.8</ele>
        <time>2023-10-18T15:04:38Z</time>
      </trkpt>
      <trkpt lat="48.72856" lon="7.04541">
        <ele>252.9</ele>
        <time>2023-10-18T15:04:41Z</time>
      </trkpt>
      <trkpt lat="48.72857" lon="7.04523">
        <ele>252.8</ele>
        <time>2023-10-18T15:04:43Z</time>
      </trkpt>
      <trkpt lat="48.72854" lon="7.04507">
        <ele>252.8</ele>
        <time>2023-10-18T15:04:45Z</time>
      </trkpt>
      <trkpt lat="48.72848" lon="7.04492">
        <ele>252.7</ele>
        <time>2023-10-18T15:04:47Z</time>
      </trkpt>
      <trkpt lat="48.72841" lon="7.0448">
        <ele>252.6</ele>
        <time>2023-10-18T15:04:49Z</time>
      </trkpt>
      <trkpt lat="48.72829" lon="7.04467">
        <ele>252.6</ele>
        <time>2023-10-18T15:04:52Z</time>
      </trkpt>
      <trkpt lat="48.7282" lon="7.04463">
        <ele>252.7</ele>
        <time>2023-10-18T15:04:54Z</time>
      </trkpt>
      <trkpt lat="48.72811" lon="7.04465">
        <ele>252.7</ele>
        <time>2023-10-18T15:04:56Z</time>
      </trkpt>
      <trkpt lat="48.72803" lon="7.04472">
        <ele>252.6</ele>
        <time>2023-10-18T15:04:58Z</time>
      </trkpt>
      <trkpt lat="48.72796" lon="7.04483">
        <ele>252.6</ele>
        <time>2023-10-18T15:05:00Z</time>
      </trkpt>
      <trkpt lat="48.72783" lon="7.04512">
        <ele>252.4</ele>
        <time>2023-10-18T15:05:04Z</time>
      </trkpt>
      <trkpt lat="48.7277" lon="7.04541">
        <ele>252.2</ele>
        <time>2023-10-18T15:05:08Z</time>
      </trkpt>
      <trkpt lat="48.72758" lon="7.04567">
        <ele>252.2</ele>
        <time>2023-10-18T15:05:12Z</time>
      </trkpt>
      <trkpt lat="48.72746" lon="7.04595">
        <ele>252.2</ele>
        <time>2023-10-18T15:05:16Z</time>
      </trkpt>
      <trkpt lat="48.72745" lon="7.04603">
        <ele>252.2</ele>
        <time>2023-10-18T15:05:17Z</time>
      </trkpt>
      <trkpt lat="48.72745" lon="7.04618">
        <ele>252.2</ele>
        <time>2023-10-18T15:05:19Z</time>
      </trkpt>
      <trkpt lat="48.72748" lon="7.04632">
        <ele>252.2</ele>
        <time>2023-10-18T15:05:21Z</time>
      </trkpt>
      <trkpt lat="48.72754" lon="7.04645">
        <ele>252.2</ele>
        <time>2023-10-18T15:05:23Z</time>
      </trkpt>
      <trkpt lat="48.72762" lon="7.04654">
        <ele>252.2</ele>
        <time>2023-10-18T15:05:25Z</time>
      </trkpt>
      <trkpt lat="48.72771" lon="7.04661">
        <ele>252.3</ele>
        <time>2023-10-18T15:05:27Z</time>
      </trkpt>
      <trkpt lat="48.72786" lon="7.04665">
        <ele>252.4</ele>
        <time>2023-10-18T15:05:30Z</time>
      </trkpt>
      <trkpt lat="48.72796" lon="7.04663">
        <ele>252.4</ele>
        <time>2023-10-18T15:05:32Z</time>
      </trkpt>
      <trkpt lat="48.72804" lon="7.04656">
        <ele>252.4</ele>
        <time>2023-10-18T15:05:34Z</time>
      </trkpt>
      <trkpt lat="48.7281" lon="7.04646">
        <ele>252.4</ele>
        <time>2023-10-18T15:05:36Z</time>
      </trkpt>
      <trkpt lat="48.72821" lon="7.04622">
        <ele>252.6</ele>
        <time>2023-10-18T15:05:40Z</time>
      </trkpt>
      <trkpt lat="48.72832" lon="7.04596">
        <ele>252.7</ele>
        <time>2023-10-18T15:05:44Z</time>
      </trkpt>
      <trkpt lat="48.72844" lon="7.04572">
        <ele>252.8</ele>
        <time>2023-10-18T15:05:48Z</time>
      </trkpt>
      <trkpt lat="48.72854" lon="7.04544">
        <ele>252.9</ele>
        <time>2023-10-18T15:05:52Z</time>
      </trkpt>
      <trkpt lat="48.72856" lon="7.04537">
        <ele>252.9</ele>
        <time>2023-10-18T15:05:53Z</time>
      </trkpt>
      <trkpt lat="48.72856" lon="7.0452">
        <ele>252.8</ele>
        <time>2023-10-18T15:05:55Z</time>
      </trkpt>
      <trkpt lat="48.72852" lon="7.04504">
        <ele>252.8</ele>
        <time>2023-10-18T15:05:57Z</time>
      </trkpt>
      <trkpt lat="48.72844" lon="7.04484">
        <ele>252.6</ele>
        <time>2023-10-18T15:06:00Z</time>
      </trkpt>
      <trkpt lat="48.72836" lon="7.04474">
        <ele>252.6</ele>
        <time>2023-10-18T15:06:02Z</time>
      </trkpt>
      <trkpt lat="48.72828" lon="7.04467">
        <ele>252.6</ele>
        <time>2023-10-18T15:06:04Z</time>
      </trkpt>
      <trkpt lat="48.72819" lon="7.04463">
        <ele>252.7</ele>
        <time>2023-10-18T15:06:06Z</time>
      </trkpt>
      <trkpt lat="48.72811" lon="7.04465">
        <ele>252.7</ele>
        <time>2023-10-18T15:06:08Z</time>
      </trkpt>
      <trkpt lat="48.72803" lon="7.04472">
        <ele>252.6</ele>
        <time>2023-10-18T15:06:10Z</time>
      </trkpt>
      <trkpt lat="48.72796" lon="7.04485">
        <ele>252.5</ele>
        <time>2023-10-18T15:06:12Z</time>
      </trkpt>
      <trkpt lat="48.72783" lon="7.04513">
        <ele>252.4</ele>
        <time>2023-10-18T15:06:16Z</time>
      </trkpt>
      <trkpt lat="48.72771" lon="7.0454">
        <ele>252.2</ele>
        <time>2023-10-18T15:06:20Z</time>
      </trkpt>
      <trkpt lat="48.72759" lon="7.04566">
        <ele>252.2</ele>
        <time>2023-10-18T15:06:24Z</time>
      </trkpt>
      <trkpt lat="48.72748" lon="7.04592">
        <ele>252.2</ele>
        <time>2023-10-18T15:06:28Z</time>
      </trkpt>
      <trkpt lat="48.72746" lon="7.04607">
        <ele>252.2</ele>
        <time>2023-10-18T15:06:30Z</time>
      </trkpt>
      <trkpt lat="48.72746" lon="7.04622">
        <ele>252.2</ele>
        <time>2023-10-18T15:06:32Z</time>
      </trkpt>
      <trkpt lat="48.7275" lon="7.04636">
        <ele>252.2</ele>
        <time>2023-10-18T15:06:34Z</time>
      </trkpt>
      <trkpt lat="48.72756" lon="7.04648">
        <ele>252.2</ele>
        <time>2023-10-18T15:06:36Z</time>
      </trkpt>
      <trkpt lat="48.72769" lon="7.04661">
        <ele>252.3</ele>
        <time>2023-10-18T15:06:39Z</time>
      </trkpt>
      <trkpt lat="48.72784" lon="7.04667">
        <ele>252.4</ele>
        <time>2023-10-18T15:06:42Z</time>
      </trkpt>
      <trkpt lat="48.72793" lon="7.04667">
        <ele>252.4</ele>
        <time>2023-10-18T15:06:44Z</time>
      </trkpt>
      <trkpt lat="48.72802" lon="7.04662">
        <ele>252.4</ele>
        <time>2023-10-18T15:06:46Z</time>
      </trkpt>
      <trkpt lat="48.72809" lon="7.04653">
        <ele>252.4</ele>
        <time>2023-10-18T15:06:48Z</time>
      </trkpt>
      <trkpt lat="48.72819" lon="7.04628">
        <ele>252.6</ele>
        <time>2023-10-18T15:06:52Z</time>
      </trkpt>
      <trkpt lat="48.7283" lon="7.04602">
        <ele>252.7</ele>
        <time>2023-10-18T15:06:56Z</time>
      </trkpt>
      <trkpt lat="48.72841" lon="7.04576">
        <ele>252.8</ele>
        <time>2023-10-18T15:07:00Z</time>
      </trkpt>
      <trkpt lat="48.72852" lon="7.0455">
        <ele>252.9</ele>
        <time>2023-10-18T15:07:04Z</time>
      </trkpt>
      <trkpt lat="48.72854" lon="7.04543">
        <ele>252.9</ele>
        <time>2023-10-18T15:07:05Z</time>
      </trkpt>
      <trkpt lat="48.72856" lon="7.04528">
        <ele>252.8</ele>
        <time>2023-10-18T15:07:07Z</time>
      </trkpt>
      <trkpt lat="48.72854" lon="7.04511">
        <ele>252.8</ele>
        <time>2023-10-18T15:07:09Z</time>
      </trkpt>
      <trkpt lat="48.7285" lon="7.04497">
        <ele>252.7</ele>
        <time>2023-10-18T15:07:11Z</time>
      </trkpt>
      <trkpt lat="48.72837" lon="7.04474">
        <ele>252.6</ele>
        <time>2023-10-18T15:07:15Z</time>
      </trkpt>
      <trkpt lat="48.72828" lon="7.04467">
        <ele>252.6</ele>
        <time>2023-10-18T15:07:17Z</time>
      </trkpt>
      <trkpt lat="48.7282" lon="7.04464">
        <ele>252.7</ele>
        <time>2023-10-18T15:07:19Z</time>
      </trkpt>
      <trkpt lat="48.72811" lon="7.04465">
        <ele>252.7</ele>
        <time>2023-10-18T15:07:21Z</time>
      </trkpt>
      <trkpt lat="48.72803" lon="7.04474">
        <ele>252.6</ele>
        <time>2023-10-18T15:07:23Z</time>
      </trkpt>
      <trkpt lat="48.72796" lon="7.04486">
        <ele>252.5</ele>
        <time>2023-10-18T15:07:25Z</time>
      </trkpt>
      <trkpt lat="48.72783" lon="7.04514">
        <ele>252.4</ele>
        <time>2023-10-18T15:07:29Z</time>
      </trkpt>
      <trkpt lat="48.72771" lon="7.04541">
        <ele>252.2</ele>
        <time>2023-10-18T15:07:33Z</time>
      </trkpt>
      <trkpt lat="48.7276" lon="7.04568">
        <ele>252.2</ele>
        <time>2023-10-18T15:07:37Z</time>
      </trkpt>
      <trkpt lat="48.7275" lon="7.04595">
        <ele>252.2</ele>
        <time>2023-10-18T15:07:41Z</time>
      </trkpt>
      <trkpt lat="48.72749" lon="7.04603">
        <ele>252.2</ele>
        <time>2023-10-18T15:07:42Z</time>
      </trkpt>
      <trkpt lat="48.72748" lon="7.04618">
        <ele>252.2</ele>
        <time>2023-10-18T15:07:44Z</time>
      </trkpt>
      <trkpt lat="48.72751" lon="7.04632">
        <ele>252.2</ele>
        <time>2023-10-18T15:07:46Z</time>
      </trkpt>
      <trkpt lat="48.72756" lon="7.04644">
        <ele>252.2</ele>
        <time>2023-10-18T15:07:48Z</time>
      </trkpt>
      <trkpt lat="48.72764" lon="7.04653">
        <ele>252.2</ele>
        <time>2023-10-18T15:07:50Z</time>
      </trkpt>
      <trkpt lat="48.72778" lon="7.04662">
        <ele>252.3</ele>
        <time>2023-10-18T15:07:53Z</time>
      </trkpt>
      <trkpt lat="48.72788" lon="7.04664">
        <ele>252.4</ele>
        <time>2023-10-18T15:07:55Z</time>
      </trkpt>
      <trkpt lat="48.72798" lon="7.04662">
        <ele>252.4</ele>
        <time>2023-10-18T15:07:57Z</time>
      </trkpt>
      <trkpt lat="48.72805" lon="7.04656">
        <ele>252.4</ele>
        <time>2023-10-18T15:07:59Z</time>
      </trkpt>
      <trkpt lat="48.72812" lon="7.04646">
        <ele>252.4</ele>
        <time>2023-10-18T15:08:01Z</time>
      </trkpt>
      <trkpt lat="48.72822" lon="7.04623">
        <ele>252.6</ele>
        <time>2023-10-18T15:08:05Z</time>
      </trkpt>
      <trkpt lat="48.72833" lon="7.04598">
        <ele>252.7</ele>
        <time>2023-10-18T15:08:09Z</time>
      </trkpt>
      <trkpt lat="48.72844" lon="7.04574">
        <ele>252.8</ele>
        <time>2023-10-18T15:08:13Z</time>
      </trkpt>
      <trkpt lat="48.72855" lon="7.0455">
        <ele>252.9</ele>
        <time>2023-10-18T15:08:17Z</time>
      </trkpt>
      <trkpt lat="48.72857" lon="7.04543">
        <ele>252.9</ele>
        <time>2023-10-18T15:08:18Z</time>
      </trkpt>
      <trkpt lat="48.72858" lon="7.04527">
        <ele>252.8</ele>
        <time>2023-10-18T15:08:20Z</time>
      </trkpt>
      <trkpt lat="48.72855" lon="7.04511">
        <ele>252.8</ele>
        <time>2023-10-18T15:08:22Z</time>
      </trkpt>
      <trkpt lat="48.7285" lon="7.04497">
        <ele>252.7</ele>
        <time>2023-10-18T15:08:24Z</time>
      </trkpt>
      <trkpt lat="48.72844" lon="7.04484">
        <ele>252.6</ele>
        <time>2023-10-18T15:08:26Z</time>
      </trkpt>
      <trkpt lat="48.72831" lon="7.0447">
        <ele>252.6</ele>
        <time>2023-10-18T15:08:29Z</time>
      </trkpt>
      <trkpt lat="48.72823" lon="7.04465">
        <ele>252.7</ele>
        <time>2023-10-18T15:08:31Z</time>
      </trkpt>
      <trkpt lat="48.72814" lon="7.04464">
        <ele>252.7</ele>
        <time>2023-10-18T15:08:33Z</time>
      </trkpt>
      <trkpt lat="48.72807" lon="7.04469">
        <ele>252.6</ele>
        <time>2023-10-18T15:08:35Z</time>
      </trkpt>
      <trkpt lat="48.72799" lon="7.0448">
        <ele>252.6</ele>
        <time>2023-10-18T15:08:37Z</time>
      </trkpt>
      <trkpt lat="48.72788" lon="7.04501">
        <ele>252.5</ele>
        <time>2023-10-18T15:08:40Z</time>
      </trkpt>
      <trkpt lat="48.72776" lon="7.0453">
        <ele>252.3</ele>
        <time>2023-10-18T15:08:44Z</time>
      </trkpt>
      <trkpt lat="48.72764" lon="7.04557">
        <ele>252.2</ele>
        <time>2023-10-18T15:08:48Z</time>
      </trkpt>
      <trkpt lat="48.72752" lon="7.04582">
        <ele>252.2</ele>
        <time>2023-10-18T15:08:52Z</time>
      </trkpt>
      <trkpt lat="48.72747" lon="7.04596">
        <ele>252.2</ele>
        <time>2023-10-18T15:08:54Z</time>
      </trkpt>
      <trkpt lat="48.72744" lon="7.0461">
        <ele>252.2</ele>
        <time>2023-10-18T15:08:56Z</time>
      </trkpt>
      <trkpt lat="48.72745" lon="7.04625">
        <ele>252.2</ele>
        <time>2023-10-18T15:08:58Z</time>
      </trkpt>
      <trkpt lat="48.72749" lon="7.04638">
        <ele>252.2</ele>
        <time>2023-10-18T15:09:00Z</time>
      </trkpt>
      <trkpt lat="48.72756" lon="7.04649">
        <ele>252.2</ele>
        <time>2023-10-18T15:09:02Z</time>
      </trkpt>
      <trkpt lat="48.72765" lon="7.04658">
        <ele>252.3</ele>
        <time>2023-10-18T15:09:04Z</time>
      </trkpt>
      <trkpt lat="48.72785" lon="7.04668">
        <ele>252.4</ele>
        <time>2023-10-18T15:09:08Z</time>
      </trkpt>
      <trkpt lat="48.72795" lon="7.04667">
        <ele>252.4</ele>
        <time>2023-10-18T15:09:10Z</time>
      </trkpt>
      <trkpt lat="48.72803" lon="7.04661">
        <ele>252.4</ele>
        <time>2023-10-18T15:09:12Z</time>
      </trkpt>
      <trkpt lat="48.7281" lon="7.04652">
        <ele>252.4</ele>
        <time>2023-10-18T15:09:14Z</time>
      </trkpt>
      <trkpt lat="48.72821" lon="7.04629">
        <ele>252.6</ele>
        <time>2023-10-18T15:09:18Z</time>
      </trkpt>
      <trkpt lat="48.72832" lon="7.04603">
        <ele>252.7</ele>
        <time>2023-10-18T15:09:22Z</time>
      </trkpt>
      <trkpt lat="48.72843" lon="7.04578">
        <ele>252.8</ele>
        <time>2023-10-18T15:09:26Z</time>
      </trkpt>
      <trkpt lat="48.72853" lon="7.04551">
        <ele>252.9</ele>
        <time>2023-10-18T15:09:30Z</time>
      </trkpt>
      <trkpt lat="48.72857" lon="7.04528">
        <ele>252.8</ele>
        <time>2023-10-18T15:09:33Z</time>
      </trkpt>
      <trkpt lat="48.72854" lon="7.04511">
        <ele>252.8</ele>
        <time>2023-10-18T15:09:35Z</time>
      </trkpt>
      <trkpt lat="48.72849" lon="7.04497">
        <ele>252.7</ele>
        <time>2023-10-18T15:09:37Z</time>
      </trkpt>
      <trkpt lat="48.72842" lon="7.04485">
        <ele>252.6</ele>
        <time>2023-10-18T15:09:39Z</time>
      </trkpt>
      <trkpt lat="48.72825" lon="7.04469">
        <ele>252.6</ele>
        <time>2023-10-18T15:09:43Z</time>
      </trkpt>
      <trkpt lat="48.72821" lon="7.04467">
        <ele>252.7</ele>
        <time>2023-10-18T15:09:44Z</time>
      </trkpt>
      <trkpt lat="48.72814" lon="7.04466">
        <ele>252.7</ele>
        <time>2023-10-18T15:09:46Z</time>
      </trkpt>
      <trkpt lat="48.72806" lon="7.04472">
        <ele>252.6</ele>
        <time>2023-10-18T15:09:48Z</time>
      </trkpt>
      <trkpt lat="48.72799" lon="7.04482">
        <ele>252.6</ele>
        <time>2023-10-18T15:09:50Z</time>
      </trkpt>
      <trkpt lat="48.72786" lon="7.04509">
        <ele>252.4</ele>
        <time>2023-10-18T15:09:54Z</time>
      </trkpt>
      <trkpt lat="48.72775" lon="7.04536">
        <ele>252.3</ele>
        <time>2023-10-18T15:09:58Z</time>
      </trkpt>
      <trkpt lat="48.72764" lon="7.04562">
        <ele>252.2</ele>
        <time>2023-10-18T15:10:02Z</time>
      </trkpt>
      <trkpt lat="48.72753" lon="7.04587">
        <ele>252.2</ele>
        <time>2023-10-18T15:10:06Z</time>
      </trkpt>
      <trkpt lat="48.7275" lon="7.04594">
        <ele>252.2</ele>
        <time>2023-10-18T15:10:07Z</time>
      </trkpt>
      <trkpt lat="48.72748" lon="7.04608">
        <ele>252.2</ele>
        <time>2023-10-18T15:10:09Z</time>
      </trkpt>
      <trkpt lat="48.72748" lon="7.04622">
        <ele>252.2</ele>
        <time>2023-10-18T15:10:11Z</time>
      </trkpt>
      <trkpt lat="48.72752" lon="7.04636">
        <ele>252.2</ele>
        <time>2023-10-18T15:10:13Z</time>
      </trkpt>
      <trkpt lat="48.72758" lon="7.04648">
        <ele>252.2</ele>
        <time>2023-10-18T15:10:15Z</time>
      </trkpt>
      <trkpt lat="48.72766" lon="7.04657">
        <ele>252.3</ele>
        <time>2023-10-18T15:10:17Z</time>
      </trkpt>
      <trkpt lat="48.72785" lon="7.04667">
        <ele>252.4</ele>
        <time>2023-10-18T15:10:21Z</time>
      </trkpt>
      <trkpt lat="48.72795" lon="7.04666">
        <ele>252.4</ele>
        <time>2023-10-18T15:10:23Z</time>
      </trkpt>
      <trkpt lat="48.72803" lon="7.04662">
        <ele>252.4</ele>
        <time>2023-10-18T15:10:25Z</time>
      </trkpt>
      <trkpt lat="48.7281" lon="7.04653">
        <ele>252.4</ele>
        <time>2023-10-18T15:10:27Z</time>
      </trkpt>
      <trkpt lat="48.72821" lon="7.04629">
        <ele>252.6</ele>
        <time>2023-10-18T15:10:31Z</time>
      </trkpt>
      <trkpt lat="48.72832" lon="7.04603">
        <ele>252.7</ele>
        <time>2023-10-18T15:10:35Z</time>
      </trkpt>
      <trkpt lat="48.72844" lon="7.04578">
        <ele>252.8</ele>
        <time>2023-10-18T15:10:39Z</time>
      </trkpt>
      <trkpt lat="48.72854" lon="7.04553">
        <ele>252.9</ele>
        <time>2023-10-18T15:10:43Z</time>
      </trkpt>
      <trkpt lat="48.72856" lon="7.04545">
        <ele>252.9</ele>
        <time>2023-10-18T15:10:44Z</time>
      </trkpt>
      <trkpt lat="48.72857" lon="7.04521">
        <ele>252.8</ele>
        <time>2023-10-18T15:10:47Z</time>
      </trkpt>
      <trkpt lat="48.72853" lon="7.04505">
        <ele>252.8</ele>
        <time>2023-10-18T15:10:49Z</time>
      </trkpt>
      <trkpt lat="48.72847" lon="7.04492">
        <ele>252.7</ele>
        <time>2023-10-18T15:10:51Z</time>
      </trkpt>
      <trkpt lat="48.7284" lon="7.04481">
        <ele>252.6</ele>
        <time>2023-10-18T15:10:53Z</time>
      </trkpt>
      <trkpt lat="48.72832" lon="7.04473">
        <ele>252.6</ele>
        <time>2023-10-18T15:10:55Z</time>
      </trkpt>
      <trkpt lat="48.72823" lon="7.04468">
        <ele>252.7</ele>
        <time>2023-10-18T15:10:57Z</time>
      </trkpt>
      <trkpt lat="48.72815" lon="7.04467">
        <ele>252.7</ele>
        <time>2023-10-18T15:10:59Z</time>
      </trkpt>
      <trkpt lat="48.72807" lon="7.04472">
        <ele>252.6</ele>
        <time>2023-10-18T15:11:01Z</time>
      </trkpt>
      <trkpt lat="48.72797" lon="7.04484">
        <ele>252.6</ele>
        <time>2023-10-18T15:11:03Z</time>
      </trkpt>
      <trkpt lat="48.72783" lon="7.04513">
        <ele>252.4</ele>
        <time>2023-10-18T15:11:07Z</time>
      </trkpt>
      <trkpt lat="48.72772" lon="7.0454">
        <ele>252.3</ele>
        <time>2023-10-18T15:11:11Z</time>
      </trkpt>
      <trkpt lat="48.7276" lon="7.04566">
        <ele>252.2</ele>
        <time>2023-10-18T15:11:15Z</time>
      </trkpt>
      <trkpt lat="48.72748" lon="7.04591">
        <ele>252.2</ele>
        <time>2023-10-18T15:11:19Z</time>
      </trkpt>
      <trkpt lat="48.72744" lon="7.04604">
        <ele>252.2</ele>
        <time>2023-10-18T15:11:21Z</time>
      </trkpt>
      <trkpt lat="48.72744" lon="7.04618">
        <ele>252.2</ele>
        <time>2023-10-18T15:11:23Z</time>
      </trkpt>
      <trkpt lat="48.72747" lon="7.04633">
        <ele>252.2</ele>
        <time>2023-10-18T15:11:25Z</time>
      </trkpt>
      <trkpt lat="48.72753" lon="7.04645">
        <ele>252.2</ele>
        <time>2023-10-18T15:11:27Z</time>
      </trkpt>
      <trkpt lat="48.72761" lon="7.04655">
        <ele>252.2</ele>
        <time>2023-10-18T15:11:29Z</time>
      </trkpt>
      <trkpt lat="48.7277" lon="7.04662">
        <ele>252.3</ele>
        <time>2023-10-18T15:11:31Z</time>
      </trkpt>
      <trkpt lat="48.72781" lon="7.04667">
        <ele>252.3</ele>
        <time>2023-10-18T15:11:33Z</time>
      </trkpt>
      <trkpt lat="48.72791" lon="7.04667">
        <ele>252.4</ele>
        <time>2023-10-18T15:11:35Z</time>
      </trkpt>
      <trkpt lat="48.72801" lon="7.04663">
        <ele>252.4</ele>
        <time>2023-10-18T15:11:37Z</time>
      </trkpt>
      <trkpt lat="48.72809" lon="7.04655">
        <ele>252.4</ele>
        <time>2023-10-18T15:11:39Z</time>
      </trkpt>
      <trkpt lat="48.7282" lon="7.0463">
        <ele>252.6</ele>
        <time>2023-10-18T15:11:43Z</time>
      </trkpt>
      <trkpt lat="48.72831" lon="7.04605">
        <ele>252.7</ele>
        <time>2023-10-18T15:11:47Z</time>
      </trkpt>
      <trkpt lat="48.72843" lon="7.04579">
        <ele>252.8</ele>
        <time>2023-10-18T15:11:51Z</time>
      </trkpt>
      <trkpt lat="48.72854" lon="7.0455">
        <ele>252.9</ele>
        <time>2023-10-18T15:11:55Z</time>
      </trkpt>
      <trkpt lat="48.72856" lon="7.04543">
        <ele>252.9</ele>
        <time>2023-10-18T15:11:56Z</time>
      </trkpt>
      <trkpt lat="48.72857" lon="7.04528">
        <ele>252.8</ele>
        <time>2023-10-18T15:11:58Z</time>
      </trkpt>
      <trkpt lat="48.72855" lon="7.04513">
        <ele>252.8</ele>
        <time>2023-10-18T15:12:00Z</time>
      </trkpt>
      <trkpt lat="48.72846" lon="7.04492">
        <ele>252.7</ele>
        <time>2023-10-18T15:12:03Z</time>
      </trkpt>
      <trkpt lat="48.72839" lon="7.0448">
        <ele>252.6</ele>
        <time>2023-10-18T15:12:05Z</time>
      </trkpt>
      <trkpt lat="48.7283" lon="7.04472">
        <ele>252.6</ele>
        <time>2023-10-18T15:12:07Z</time>
      </trkpt>
      <trkpt lat="48.72821" lon="7.04467">
        <ele>252.7</ele>
        <time>2023-10-18T15:12:09Z</time>
      </trkpt>
      <trkpt lat="48.72814" lon="7.04467">
        <ele>252.7</ele>
        <time>2023-10-18T15:12:11Z</time>
      </trkpt>
      <trkpt lat="48.72806" lon="7.04475">
        <ele>252.6</ele>
        <time>2023-10-18T15:12:13Z</time>
      </trkpt>
      <trkpt lat="48.72798" lon="7.04487">
        <ele>252.5</ele>
        <time>2023-10-18T15:12:15Z</time>
      </trkpt>
      <trkpt lat="48.72784" lon="7.04512">
        <ele>252.4</ele>
        <time>2023-10-18T15:12:18Z</time>
      </trkpt>
      <trkpt lat="48.72773" lon="7.04535">
        <ele>252.3</ele>
        <time>2023-10-18T15:12:21Z</time>
      </trkpt>
      <trkpt lat="48.7276" lon="7.04565">
        <ele>252.2</ele>
        <time>2023-10-18T15:12:25Z</time>
      </trkpt>
      <trkpt lat="48.72753" lon="7.0458">
        <ele>252.2</ele>
        <time>2023-10-18T15:12:27Z</time>
      </trkpt>
    </trkseg>
  </trk>
</gpx>